sensor_id;sensor_type;location;lat;lon;timestamp;temperature;humidity
27803;DHT22;15182;48.174;11.562;2023-03-14T00:00:44;16.90;81.70
27803;DHT22;15182;48.174;11.562;2023-03-14T00:03:17;16.90;82.00
27803;DHT22;15182;48.174;11.562;2023-03-14T00:05:49;16.80;82.10
27803;DHT22;15182;48.174;11.562;2023-03-14T00:08:20;16.80;82.20
27803;DHT22;15182;48.174;11.562;2023-03-14T00:10:53;16.80;82.20
27803;DHT22;15182;48.174;11.562;2023-03-14T00:13:25;16.80;83.20
27803;DHT22;15182;48.174;11.562;2023-03-14T00:16:01;16.80;82.60
27803;DHT22;15182;48.174;11.562;2023-03-14T00:18:32;16.70;82.90
27803;DHT22;15182;48.174;11.562;2023-03-14T00:21:05;16.70;82.80
27803;DHT22;15182;48.174;11.562;2023-03-14T00:23:39;16.70;82.90
27803;DHT22;15182;48.174;11.562;2023-03-14T00:26:15;16.70;83.20
27803;DHT22;15182;48.174;11.562;2023-03-14T00:28:50;16.70;83.50
27803;DHT22;15182;48.174;11.562;2023-03-14T00:31:23;16.70;83.30
27803;DHT22;15182;48.174;11.562;2023-03-14T00:33:55;16.70;83.50
27803;DHT22;15182;48.174;11.562;2023-03-14T00:36:26;16.70;83.50
27803;DHT22;15182;48.174;11.562;2023-03-14T00:38:57;16.70;83.40
27803;DHT22;15182;48.174;11.562;2023-03-14T00:41:28;16.70;83.30
27803;DHT22;15182;48.174;11.562;2023-03-14T00:44:02;16.70;83.40
27803;DHT22;15182;48.174;11.562;2023-03-14T00:46:34;16.70;83.60
27803;DHT22;15182;48.174;11.562;2023-03-14T00:49:05;16.70;83.60
27803;DHT22;15182;48.174;11.562;2023-03-14T00:51:37;16.70;83.70
27803;DHT22;15182;48.174;11.562;2023-03-14T00:54:08;16.70;83.80
27803;DHT22;15182;48.174;11.562;2023-03-14T00:56:39;16.70;84.00
27803;DHT22;15182;48.174;11.562;2023-03-14T00:59:10;16.70;85.00
27803;DHT22;15182;48.174;11.562;2023-03-14T01:01:43;16.70;84.20
27803;DHT22;15182;48.174;11.562;2023-03-14T01:04:16;16.60;84.50
27803;DHT22;15182;48.174;11.562;2023-03-14T01:06:47;16.50;84.50
27803;DHT22;15182;48.174;11.562;2023-03-14T01:09:20;16.50;84.80
27803;DHT22;15182;48.174;11.562;2023-03-14T01:11:52;16.50;85.40
27803;DHT22;15182;48.174;11.562;2023-03-14T01:14:25;16.40;85.50
27803;DHT22;15182;48.174;11.562;2023-03-14T01:16:57;16.40;85.80
27803;DHT22;15182;48.174;11.562;2023-03-14T01:19:29;16.30;86.10
27803;DHT22;15182;48.174;11.562;2023-03-14T01:22:01;16.30;86.20
27803;DHT22;15182;48.174;11.562;2023-03-14T01:24:32;16.30;86.40
27803;DHT22;15182;48.174;11.562;2023-03-14T01:27:03;16.20;86.60
27803;DHT22;15182;48.174;11.562;2023-03-14T01:29:35;16.20;87.20
27803;DHT22;15182;48.174;11.562;2023-03-14T01:32:08;16.20;87.40
27803;DHT22;15182;48.174;11.562;2023-03-14T01:34:39;16.20;88.10
27803;DHT22;15182;48.174;11.562;2023-03-14T01:37:10;16.10;88.30
27803;DHT22;15182;48.174;11.562;2023-03-14T01:39:42;16.10;88.70
27803;DHT22;15182;48.174;11.562;2023-03-14T01:42:13;16.10;88.90
27803;DHT22;15182;48.174;11.562;2023-03-14T01:44:48;16.10;89.10
27803;DHT22;15182;48.174;11.562;2023-03-14T01:47:23;16.00;90.00
27803;DHT22;15182;48.174;11.562;2023-03-14T01:49:56;16.00;89.80
27803;DHT22;15182;48.174;11.562;2023-03-14T01:52:34;15.90;89.90
27803;DHT22;15182;48.174;11.562;2023-03-14T01:55:12;15.90;90.00
27803;DHT22;15182;48.174;11.562;2023-03-14T01:57:47;15.80;90.20
27803;DHT22;15182;48.174;11.562;2023-03-14T02:00:24;15.80;90.30
27803;DHT22;15182;48.174;11.562;2023-03-14T02:03:00;15.70;90.50
27803;DHT22;15182;48.174;11.562;2023-03-14T02:05:38;15.60;90.60
27803;DHT22;15182;48.174;11.562;2023-03-14T02:08:20;15.50;90.50
27803;DHT22;15182;48.174;11.562;2023-03-14T02:10:55;15.40;90.60
27803;DHT22;15182;48.174;11.562;2023-03-14T02:13:44;15.40;90.60
27803;DHT22;15182;48.174;11.562;2023-03-14T02:16:37;15.30;90.70
27803;DHT22;15182;48.174;11.562;2023-03-14T02:19:20;15.20;90.80
27803;DHT22;15182;48.174;11.562;2023-03-14T02:22:11;15.20;91.00
27803;DHT22;15182;48.174;11.562;2023-03-14T02:25:00;15.10;91.00
27803;DHT22;15182;48.174;11.562;2023-03-14T02:27:39;15.00;91.30
27803;DHT22;15182;48.174;11.562;2023-03-14T02:30:13;15.00;91.20
27803;DHT22;15182;48.174;11.562;2023-03-14T02:32:49;14.90;91.30
27803;DHT22;15182;48.174;11.562;2023-03-14T02:35:28;14.90;91.30
27803;DHT22;15182;48.174;11.562;2023-03-14T02:38:03;14.80;91.60
27803;DHT22;15182;48.174;11.562;2023-03-14T02:40:42;14.80;91.60
27803;DHT22;15182;48.174;11.562;2023-03-14T02:43:15;14.70;91.40
27803;DHT22;15182;48.174;11.562;2023-03-14T02:45:53;14.80;91.70
27803;DHT22;15182;48.174;11.562;2023-03-14T02:48:30;14.80;91.60
27803;DHT22;15182;48.174;11.562;2023-03-14T02:51:03;14.80;91.80
27803;DHT22;15182;48.174;11.562;2023-03-14T02:53:39;14.70;91.60
27803;DHT22;15182;48.174;11.562;2023-03-14T02:56:13;14.70;91.90
27803;DHT22;15182;48.174;11.562;2023-03-14T02:58:47;14.70;91.70
27803;DHT22;15182;48.174;11.562;2023-03-14T03:01:36;14.70;91.80
27803;DHT22;15182;48.174;11.562;2023-03-14T03:04:07;14.70;91.70
27803;DHT22;15182;48.174;11.562;2023-03-14T03:06:41;14.70;91.60
27803;DHT22;15182;48.174;11.562;2023-03-14T03:09:13;14.70;92.20
27803;DHT22;15182;48.174;11.562;2023-03-14T03:11:44;14.70;91.70
27803;DHT22;15182;48.174;11.562;2023-03-14T03:14:22;14.70;91.70
27803;DHT22;15182;48.174;11.562;2023-03-14T03:16:54;14.70;91.70
27803;DHT22;15182;48.174;11.562;2023-03-14T03:19:25;14.60;91.60
27803;DHT22;15182;48.174;11.562;2023-03-14T03:21:57;14.50;91.70
27803;DHT22;15182;48.174;11.562;2023-03-14T03:24:30;14.50;91.70
27803;DHT22;15182;48.174;11.562;2023-03-14T03:27:03;14.50;91.90
27803;DHT22;15182;48.174;11.562;2023-03-14T03:29:36;14.50;91.80
27803;DHT22;15182;48.174;11.562;2023-03-14T03:32:07;14.50;91.90
27803;DHT22;15182;48.174;11.562;2023-03-14T03:34:40;14.40;91.80
27803;DHT22;15182;48.174;11.562;2023-03-14T03:37:12;14.40;91.90
27803;DHT22;15182;48.174;11.562;2023-03-14T03:39:46;14.40;91.80
27803;DHT22;15182;48.174;11.562;2023-03-14T03:42:19;14.40;91.80
27803;DHT22;15182;48.174;11.562;2023-03-14T03:44:51;14.40;91.80
27803;DHT22;15182;48.174;11.562;2023-03-14T03:47:24;14.40;91.90
27803;DHT22;15182;48.174;11.562;2023-03-14T03:49:55;14.40;91.80
27803;DHT22;15182;48.174;11.562;2023-03-14T03:52:26;14.40;91.80
27803;DHT22;15182;48.174;11.562;2023-03-14T03:54:58;14.40;91.80
27803;DHT22;15182;48.174;11.562;2023-03-14T03:57:30;14.40;91.80
27803;DHT22;15182;48.174;11.562;2023-03-14T04:00:03;14.40;91.80
27803;DHT22;15182;48.174;11.562;2023-03-14T04:02:44;14.40;91.70
27803;DHT22;15182;48.174;11.562;2023-03-14T04:05:18;14.30;91.70
27803;DHT22;15182;48.174;11.562;2023-03-14T04:07:59;14.30;91.50
27803;DHT22;15182;48.174;11.562;2023-03-14T04:10:33;14.30;91.50
27803;DHT22;15182;48.174;11.562;2023-03-14T04:13:13;14.20;91.40
27803;DHT22;15182;48.174;11.562;2023-03-14T04:15:51;14.20;91.40
27803;DHT22;15182;48.174;11.562;2023-03-14T04:18:26;14.20;91.50
27803;DHT22;15182;48.174;11.562;2023-03-14T04:20:59;14.20;91.40
27803;DHT22;15182;48.174;11.562;2023-03-14T04:23:41;14.20;91.40
27803;DHT22;15182;48.174;11.562;2023-03-14T04:26:14;14.10;91.40
27803;DHT22;15182;48.174;11.562;2023-03-14T04:28:47;14.10;91.30
27803;DHT22;15182;48.174;11.562;2023-03-14T04:31:21;14.10;91.40
27803;DHT22;15182;48.174;11.562;2023-03-14T04:33:54;14.00;91.40
27803;DHT22;15182;48.174;11.562;2023-03-14T04:36:32;14.00;91.30
27803;DHT22;15182;48.174;11.562;2023-03-14T04:39:07;14.00;91.40
27803;DHT22;15182;48.174;11.562;2023-03-14T04:41:44;13.90;91.40
27803;DHT22;15182;48.174;11.562;2023-03-14T04:44:16;13.90;91.90
27803;DHT22;15182;48.174;11.562;2023-03-14T04:46:49;13.90;91.40
27803;DHT22;15182;48.174;11.562;2023-03-14T04:49:20;13.90;91.60
27803;DHT22;15182;48.174;11.562;2023-03-14T04:51:53;13.80;91.40
27803;DHT22;15182;48.174;11.562;2023-03-14T04:54:27;13.80;91.50
27803;DHT22;15182;48.174;11.562;2023-03-14T04:57:01;13.80;91.40
27803;DHT22;15182;48.174;11.562;2023-03-14T04:59:35;13.70;91.50
27803;DHT22;15182;48.174;11.562;2023-03-14T05:02:19;13.70;91.50
27803;DHT22;15182;48.174;11.562;2023-03-14T05:05:03;13.60;91.50
27803;DHT22;15182;48.174;11.562;2023-03-14T05:07:55;13.60;91.60
27803;DHT22;15182;48.174;11.562;2023-03-14T05:10:53;13.60;91.50
27803;DHT22;15182;48.174;11.562;2023-03-14T05:13:58;13.60;91.70
27803;DHT22;15182;48.174;11.562;2023-03-14T05:16:55;13.60;91.60
27803;DHT22;15182;48.174;11.562;2023-03-14T05:19:38;13.60;91.50
27803;DHT22;15182;48.174;11.562;2023-03-14T05:22:32;13.60;91.60
27803;DHT22;15182;48.174;11.562;2023-03-14T05:25:22;13.50;91.50
27803;DHT22;15182;48.174;11.562;2023-03-14T05:27:56;13.60;91.60
27803;DHT22;15182;48.174;11.562;2023-03-14T05:30:45;13.50;91.70
27803;DHT22;15182;48.174;11.562;2023-03-14T05:33:34;13.50;91.60
27803;DHT22;15182;48.174;11.562;2023-03-14T05:36:16;13.50;91.60
27803;DHT22;15182;48.174;11.562;2023-03-14T05:39:01;13.60;91.70
27803;DHT22;15182;48.174;11.562;2023-03-14T05:42:02;13.50;91.60
27803;DHT22;15182;48.174;11.562;2023-03-14T05:44:55;13.50;91.50
27803;DHT22;15182;48.174;11.562;2023-03-14T05:47:52;13.50;91.60
27803;DHT22;15182;48.174;11.562;2023-03-14T05:50:58;13.50;91.60
27803;DHT22;15182;48.174;11.562;2023-03-14T05:54:00;13.50;91.70
27803;DHT22;15182;48.174;11.562;2023-03-14T05:56:51;13.50;91.60
27803;DHT22;15182;48.174;11.562;2023-03-14T05:59:42;13.50;91.70
27803;DHT22;15182;48.174;11.562;2023-03-14T06:02:27;13.50;91.70
27803;DHT22;15182;48.174;11.562;2023-03-14T06:05:05;13.50;91.70
27803;DHT22;15182;48.174;11.562;2023-03-14T06:07:38;13.50;91.70
27803;DHT22;15182;48.174;11.562;2023-03-14T06:10:11;13.50;91.70
27803;DHT22;15182;48.174;11.562;2023-03-14T06:12:42;13.50;91.80
27803;DHT22;15182;48.174;11.562;2023-03-14T06:15:14;13.50;91.80
27803;DHT22;15182;48.174;11.562;2023-03-14T06:17:51;13.60;91.80
27803;DHT22;15182;48.174;11.562;2023-03-14T06:20:22;13.60;91.80
27803;DHT22;15182;48.174;11.562;2023-03-14T06:22:56;13.60;91.70
27803;DHT22;15182;48.174;11.562;2023-03-14T06:25:29;13.70;92.10
27803;DHT22;15182;48.174;11.562;2023-03-14T06:28:02;13.70;91.60
27803;DHT22;15182;48.174;11.562;2023-03-14T06:30:34;13.70;91.70
27803;DHT22;15182;48.174;11.562;2023-03-14T06:33:05;13.80;91.70
27803;DHT22;15182;48.174;11.562;2023-03-14T06:35:36;13.80;91.60
27803;DHT22;15182;48.174;11.562;2023-03-14T06:38:08;13.80;92.00
27803;DHT22;15182;48.174;11.562;2023-03-14T06:40:41;13.80;91.50
27803;DHT22;15182;48.174;11.562;2023-03-14T06:43:15;13.90;91.60
27803;DHT22;15182;48.174;11.562;2023-03-14T06:45:47;13.90;91.50
27803;DHT22;15182;48.174;11.562;2023-03-14T06:48:19;13.90;91.50
27803;DHT22;15182;48.174;11.562;2023-03-14T06:50:57;14.00;91.40
27803;DHT22;15182;48.174;11.562;2023-03-14T06:53:29;14.00;91.40
27803;DHT22;15182;48.174;11.562;2023-03-14T06:56:04;14.00;91.30
27803;DHT22;15182;48.174;11.562;2023-03-14T06:58:36;14.00;91.30
27803;DHT22;15182;48.174;11.562;2023-03-14T07:01:19;14.00;91.20
27803;DHT22;15182;48.174;11.562;2023-03-14T07:03:53;14.00;91.20
27803;DHT22;15182;48.174;11.562;2023-03-14T07:06:25;14.10;91.10
27803;DHT22;15182;48.174;11.562;2023-03-14T07:09:09;14.10;91.10
27803;DHT22;15182;48.174;11.562;2023-03-14T07:11:46;14.10;91.10
27803;DHT22;15182;48.174;11.562;2023-03-14T07:14:19;14.20;91.00
27803;DHT22;15182;48.174;11.562;2023-03-14T07:16:51;14.20;90.90
27803;DHT22;15182;48.174;11.562;2023-03-14T07:19:22;14.20;90.90
27803;DHT22;15182;48.174;11.562;2023-03-14T07:21:54;14.20;90.80
27803;DHT22;15182;48.174;11.562;2023-03-14T07:24:28;14.20;90.80
27803;DHT22;15182;48.174;11.562;2023-03-14T07:27:01;14.20;90.80
27803;DHT22;15182;48.174;11.562;2023-03-14T07:29:32;14.20;90.80
27803;DHT22;15182;48.174;11.562;2023-03-14T07:32:07;14.20;90.80
27803;DHT22;15182;48.174;11.562;2023-03-14T07:34:42;14.20;90.80
27803;DHT22;15182;48.174;11.562;2023-03-14T07:37:13;14.10;90.70
27803;DHT22;15182;48.174;11.562;2023-03-14T07:39:45;14.10;90.70
27803;DHT22;15182;48.174;11.562;2023-03-14T07:42:22;14.10;90.70
27803;DHT22;15182;48.174;11.562;2023-03-14T07:45:05;14.10;90.70
27803;DHT22;15182;48.174;11.562;2023-03-14T07:47:38;14.10;90.70
27803;DHT22;15182;48.174;11.562;2023-03-14T07:50:12;14.10;90.70
27803;DHT22;15182;48.174;11.562;2023-03-14T07:52:44;14.10;90.80
27803;DHT22;15182;48.174;11.562;2023-03-14T07:55:15;14.10;90.80
27803;DHT22;15182;48.174;11.562;2023-03-14T07:57:48;14.10;90.80
27803;DHT22;15182;48.174;11.562;2023-03-14T08:00:20;14.10;90.80
27803;DHT22;15182;48.174;11.562;2023-03-14T08:02:52;14.20;90.80
27803;DHT22;15182;48.174;11.562;2023-03-14T08:05:23;14.20;90.70
27803;DHT22;15182;48.174;11.562;2023-03-14T08:07:54;14.30;90.70
27803;DHT22;15182;48.174;11.562;2023-03-14T08:10:26;14.30;90.60
27803;DHT22;15182;48.174;11.562;2023-03-14T08:12:59;14.30;90.60
27803;DHT22;15182;48.174;11.562;2023-03-14T08:15:31;14.40;90.60
27803;DHT22;15182;48.174;11.562;2023-03-14T08:18:06;14.40;90.60
27803;DHT22;15182;48.174;11.562;2023-03-14T08:20:37;14.30;90.50
27803;DHT22;15182;48.174;11.562;2023-03-14T08:23:10;14.40;90.50
27803;DHT22;15182;48.174;11.562;2023-03-14T08:25:42;14.40;90.50
27803;DHT22;15182;48.174;11.562;2023-03-14T08:28:14;14.40;90.40
27803;DHT22;15182;48.174;11.562;2023-03-14T08:30:46;14.40;90.40
27803;DHT22;15182;48.174;11.562;2023-03-14T08:33:19;14.40;90.40
27803;DHT22;15182;48.174;11.562;2023-03-14T08:35:53;14.50;90.50
27803;DHT22;15182;48.174;11.562;2023-03-14T08:38:26;14.50;90.40
27803;DHT22;15182;48.174;11.562;2023-03-14T08:40:58;14.50;90.30
27803;DHT22;15182;48.174;11.562;2023-03-14T08:43:32;14.50;90.20
27803;DHT22;15182;48.174;11.562;2023-03-14T08:46:04;14.50;90.10
27803;DHT22;15182;48.174;11.562;2023-03-14T08:48:35;14.60;90.10
27803;DHT22;15182;48.174;11.562;2023-03-14T08:51:10;14.60;90.10
27803;DHT22;15182;48.174;11.562;2023-03-14T08:53:43;14.60;90.10
27803;DHT22;15182;48.174;11.562;2023-03-14T08:56:16;14.60;90.10
27803;DHT22;15182;48.174;11.562;2023-03-14T08:58:48;14.60;90.00
27803;DHT22;15182;48.174;11.562;2023-03-14T09:01:22;14.60;90.00
27803;DHT22;15182;48.174;11.562;2023-03-14T09:03:54;14.60;90.00
27803;DHT22;15182;48.174;11.562;2023-03-14T09:06:25;14.60;89.80
27803;DHT22;15182;48.174;11.562;2023-03-14T09:08:56;14.60;89.60
27803;DHT22;15182;48.174;11.562;2023-03-14T09:11:30;14.60;90.10
27803;DHT22;15182;48.174;11.562;2023-03-14T09:14:02;14.70;89.60
27803;DHT22;15182;48.174;11.562;2023-03-14T09:16:34;14.70;89.60
27803;DHT22;15182;48.174;11.562;2023-03-14T09:19:06;14.70;89.60
27803;DHT22;15182;48.174;11.562;2023-03-14T09:21:37;14.70;89.40
27803;DHT22;15182;48.174;11.562;2023-03-14T09:24:08;14.80;89.50
27803;DHT22;15182;48.174;11.562;2023-03-14T09:26:39;14.70;89.30
27803;DHT22;15182;48.174;11.562;2023-03-14T09:29:13;14.80;89.40
27803;DHT22;15182;48.174;11.562;2023-03-14T09:31:44;14.80;89.10
27803;DHT22;15182;48.174;11.562;2023-03-14T09:34:17;14.80;89.00
27803;DHT22;15182;48.174;11.562;2023-03-14T09:36:48;14.80;88.90
27803;DHT22;15182;48.174;11.562;2023-03-14T09:39:21;14.80;88.70
27803;DHT22;15182;48.174;11.562;2023-03-14T09:41:54;14.80;88.40
27803;DHT22;15182;48.174;11.562;2023-03-14T09:44:29;14.80;88.30
27803;DHT22;15182;48.174;11.562;2023-03-14T09:47:05;14.80;88.10
27803;DHT22;15182;48.174;11.562;2023-03-14T09:49:41;14.80;88.30
27803;DHT22;15182;48.174;11.562;2023-03-14T09:52:15;14.80;88.10
27803;DHT22;15182;48.174;11.562;2023-03-14T09:54:52;14.80;88.10
27803;DHT22;15182;48.174;11.562;2023-03-14T09:57:28;14.80;88.20
27803;DHT22;15182;48.174;11.562;2023-03-14T10:00:06;14.90;88.10
27803;DHT22;15182;48.174;11.562;2023-03-14T10:02:45;14.90;87.70
27803;DHT22;15182;48.174;11.562;2023-03-14T10:05:23;15.00;87.60
27803;DHT22;15182;48.174;11.562;2023-03-14T10:07:57;15.00;87.60
27803;DHT22;15182;48.174;11.562;2023-03-14T10:10:31;15.00;87.80
27803;DHT22;15182;48.174;11.562;2023-03-14T10:13:12;15.00;87.60
27803;DHT22;15182;48.174;11.562;2023-03-14T10:15:51;15.10;87.40
27803;DHT22;15182;48.174;11.562;2023-03-14T10:18:25;15.10;87.50
27803;DHT22;15182;48.174;11.562;2023-03-14T10:21:05;15.20;87.70
27803;DHT22;15182;48.174;11.562;2023-03-14T10:23:47;15.20;87.40
27803;DHT22;15182;48.174;11.562;2023-03-14T10:26:26;15.30;87.50
27803;DHT22;15182;48.174;11.562;2023-03-14T10:29:08;15.40;87.50
27803;DHT22;15182;48.174;11.562;2023-03-14T10:31:52;15.50;88.00
27803;DHT22;15182;48.174;11.562;2023-03-14T10:34:28;15.60;88.00
27803;DHT22;15182;48.174;11.562;2023-03-14T10:37:15;15.90;87.20
27803;DHT22;15182;48.174;11.562;2023-03-14T10:39:52;16.00;86.10
27803;DHT22;15182;48.174;11.562;2023-03-14T10:42:27;16.10;85.90
27803;DHT22;15182;48.174;11.562;2023-03-14T10:45:03;16.20;85.70
27803;DHT22;15182;48.174;11.562;2023-03-14T10:47:52;16.30;85.30
27803;DHT22;15182;48.174;11.562;2023-03-14T10:50:29;16.30;85.10
27803;DHT22;15182;48.174;11.562;2023-03-14T10:53:03;16.40;84.40
27803;DHT22;15182;48.174;11.562;2023-03-14T10:55:42;16.40;83.90
27803;DHT22;15182;48.174;11.562;2023-03-14T10:58:27;16.30;83.50
27803;DHT22;15182;48.174;11.562;2023-03-14T11:01:05;16.30;83.10
27803;DHT22;15182;48.174;11.562;2023-03-14T11:03:47;16.20;83.30
27803;DHT22;15182;48.174;11.562;2023-03-14T11:06:27;16.20;83.30
27803;DHT22;15182;48.174;11.562;2023-03-14T11:09:05;16.10;83.50
27803;DHT22;15182;48.174;11.562;2023-03-14T11:11:41;16.10;83.50
27803;DHT22;15182;48.174;11.562;2023-03-14T11:14:28;16.00;83.60
27803;DHT22;15182;48.174;11.562;2023-03-14T11:17:05;16.00;83.30
27803;DHT22;15182;48.174;11.562;2023-03-14T11:20:00;16.00;83.50
27803;DHT22;15182;48.174;11.562;2023-03-14T11:22:43;16.00;83.30
27803;DHT22;15182;48.174;11.562;2023-03-14T11:25:22;16.00;83.10
27803;DHT22;15182;48.174;11.562;2023-03-14T11:28:05;16.00;82.90
27803;DHT22;15182;48.174;11.562;2023-03-14T11:30:50;16.00;82.70
27803;DHT22;15182;48.174;11.562;2023-03-14T11:33:27;16.00;82.90
27803;DHT22;15182;48.174;11.562;2023-03-14T11:36:06;16.10;82.90
27803;DHT22;15182;48.174;11.562;2023-03-14T11:38:46;16.10;82.70
27803;DHT22;15182;48.174;11.562;2023-03-14T11:41:23;16.20;82.70
27803;DHT22;15182;48.174;11.562;2023-03-14T11:43:59;16.30;82.50
27803;DHT22;15182;48.174;11.562;2023-03-14T11:46:36;16.30;82.30
27803;DHT22;15182;48.174;11.562;2023-03-14T11:49:17;16.30;82.10
27803;DHT22;15182;48.174;11.562;2023-03-14T11:51:57;16.30;82.10
27803;DHT22;15182;48.174;11.562;2023-03-14T11:54:37;16.40;81.80
27803;DHT22;15182;48.174;11.562;2023-03-14T11:57:14;16.40;81.60
27803;DHT22;15182;48.174;11.562;2023-03-14T11:59:52;16.30;81.70
27803;DHT22;15182;48.174;11.562;2023-03-14T12:02:31;16.30;81.70
27803;DHT22;15182;48.174;11.562;2023-03-14T12:11:19;16.30;81.40
27803;DHT22;15182;48.174;11.562;2023-03-14T12:13:54;16.30;81.40
27803;DHT22;15182;48.174;11.562;2023-03-14T12:16:38;16.30;81.40
27803;DHT22;15182;48.174;11.562;2023-03-14T12:22:13;16.20;80.90
27803;DHT22;15182;48.174;11.562;2023-03-14T12:24:53;16.20;80.80
27803;DHT22;15182;48.174;11.562;2023-03-14T12:27:47;16.20;80.90
27803;DHT22;15182;48.174;11.562;2023-03-14T12:30:23;16.20;80.90
27803;DHT22;15182;48.174;11.562;2023-03-14T12:33:14;16.20;81.20
27803;DHT22;15182;48.174;11.562;2023-03-14T12:35:51;16.20;80.70
27803;DHT22;15182;48.174;11.562;2023-03-14T12:38:29;16.20;81.30
27803;DHT22;15182;48.174;11.562;2023-03-14T12:41:14;16.20;81.10
27803;DHT22;15182;48.174;11.562;2023-03-14T12:43:48;16.20;80.90
27803;DHT22;15182;48.174;11.562;2023-03-14T12:46:25;16.30;81.20
27803;DHT22;15182;48.174;11.562;2023-03-14T12:49:03;16.30;81.10
27803;DHT22;15182;48.174;11.562;2023-03-14T12:51:39;16.30;81.50
27803;DHT22;15182;48.174;11.562;2023-03-14T12:54:31;16.40;81.30
27803;DHT22;15182;48.174;11.562;2023-03-14T12:57:24;16.40;80.50
27803;DHT22;15182;48.174;11.562;2023-03-14T12:59:58;16.50;80.40
27803;DHT22;15182;48.174;11.562;2023-03-14T13:02:43;16.40;81.60
27803;DHT22;15182;48.174;11.562;2023-03-14T13:05:18;16.50;80.40
27803;DHT22;15182;48.174;11.562;2023-03-14T13:08:08;16.40;80.40
27803;DHT22;15182;48.174;11.562;2023-03-14T13:10:45;16.40;80.50
27803;DHT22;15182;48.174;11.562;2023-03-14T13:13:22;16.40;80.50
27803;DHT22;15182;48.174;11.562;2023-03-14T13:15:56;16.30;80.40
27803;DHT22;15182;48.174;11.562;2023-03-14T13:18:36;16.30;80.40
27803;DHT22;15182;48.174;11.562;2023-03-14T13:21:14;16.30;80.10
27803;DHT22;15182;48.174;11.562;2023-03-14T13:23:59;16.20;80.40
27803;DHT22;15182;48.174;11.562;2023-03-14T13:26:37;16.10;80.10
27803;DHT22;15182;48.174;11.562;2023-03-14T13:29:19;16.10;80.60
27803;DHT22;15182;48.174;11.562;2023-03-14T13:31:54;16.10;80.50
27803;DHT22;15182;48.174;11.562;2023-03-14T13:34:28;16.00;80.80
27803;DHT22;15182;48.174;11.562;2023-03-14T13:37:01;16.00;81.40
27803;DHT22;15182;48.174;11.562;2023-03-14T13:39:33;15.90;81.80
27803;DHT22;15182;48.174;11.562;2023-03-14T13:42:04;15.80;82.10
27803;DHT22;15182;48.174;11.562;2023-03-14T13:44:41;15.80;82.40
27803;DHT22;15182;48.174;11.562;2023-03-14T13:47:17;15.80;82.70
27803;DHT22;15182;48.174;11.562;2023-03-14T13:49:52;15.70;82.90
27803;DHT22;15182;48.174;11.562;2023-03-14T13:52:24;15.60;83.00
27803;DHT22;15182;48.174;11.562;2023-03-14T13:55:01;15.50;82.70
27803;DHT22;15182;48.174;11.562;2023-03-14T13:57:47;15.40;82.80
27803;DHT22;15182;48.174;11.562;2023-03-14T14:00:26;15.30;82.90
27803;DHT22;15182;48.174;11.562;2023-03-14T14:02:59;15.30;83.40
27803;DHT22;15182;48.174;11.562;2023-03-14T14:05:31;15.20;83.80
27803;DHT22;15182;48.174;11.562;2023-03-14T14:08:05;15.20;83.80
27803;DHT22;15182;48.174;11.562;2023-03-14T14:10:39;15.10;83.90
27803;DHT22;15182;48.174;11.562;2023-03-14T14:13:14;15.00;84.00
27803;DHT22;15182;48.174;11.562;2023-03-14T14:15:51;14.90;85.20
27803;DHT22;15182;48.174;11.562;2023-03-14T14:18:25;14.80;85.20
27803;DHT22;15182;48.174;11.562;2023-03-14T14:20:59;14.70;85.90
27803;DHT22;15182;48.174;11.562;2023-03-14T14:23:31;14.60;86.50
27803;DHT22;15182;48.174;11.562;2023-03-14T14:26:02;14.50;86.50
27803;DHT22;15182;48.174;11.562;2023-03-14T14:28:37;14.40;87.30
27803;DHT22;15182;48.174;11.562;2023-03-14T14:31:22;14.30;88.00
27803;DHT22;15182;48.174;11.562;2023-03-14T14:34:01;14.20;90.50
27803;DHT22;15182;48.174;11.562;2023-03-14T14:36:38;14.20;90.10
27803;DHT22;15182;48.174;11.562;2023-03-14T14:39:15;14.10;89.80
27803;DHT22;15182;48.174;11.562;2023-03-14T14:41:52;14.10;89.40
27803;DHT22;15182;48.174;11.562;2023-03-14T14:44:29;14.00;89.50
27803;DHT22;15182;48.174;11.562;2023-03-14T14:47:04;13.90;89.50
27803;DHT22;15182;48.174;11.562;2023-03-14T14:49:41;13.70;89.40
27803;DHT22;15182;48.174;11.562;2023-03-14T14:52:15;13.60;89.30
27803;DHT22;15182;48.174;11.562;2023-03-14T14:54:51;13.40;89.70
27803;DHT22;15182;48.174;11.562;2023-03-14T14:57:25;13.30;89.70
27803;DHT22;15182;48.174;11.562;2023-03-14T15:00:04;13.20;89.90
27803;DHT22;15182;48.174;11.562;2023-03-14T15:02:44;13.00;90.50
27803;DHT22;15182;48.174;11.562;2023-03-14T15:05:19;12.90;90.20
27803;DHT22;15182;48.174;11.562;2023-03-14T15:07:55;12.80;90.40
27803;DHT22;15182;48.174;11.562;2023-03-14T15:10:27;12.80;90.50
27803;DHT22;15182;48.174;11.562;2023-03-14T15:13:00;12.70;90.40
27803;DHT22;15182;48.174;11.562;2023-03-14T15:15:32;12.60;90.50
27803;DHT22;15182;48.174;11.562;2023-03-14T15:18:12;12.60;90.50
27803;DHT22;15182;48.174;11.562;2023-03-14T15:20:46;12.50;90.80
27803;DHT22;15182;48.174;11.562;2023-03-14T15:23:19;12.50;90.60
27803;DHT22;15182;48.174;11.562;2023-03-14T15:25:51;12.50;90.70
27803;DHT22;15182;48.174;11.562;2023-03-14T15:28:24;12.50;90.80
27803;DHT22;15182;48.174;11.562;2023-03-14T15:30:59;12.50;91.10
27803;DHT22;15182;48.174;11.562;2023-03-14T15:33:31;12.50;91.40
27803;DHT22;15182;48.174;11.562;2023-03-14T15:36:06;12.50;91.50
27803;DHT22;15182;48.174;11.562;2023-03-14T15:38:39;12.40;91.40
27803;DHT22;15182;48.174;11.562;2023-03-14T15:41:11;12.40;91.20
27803;DHT22;15182;48.174;11.562;2023-03-14T15:43:43;12.40;91.10
27803;DHT22;15182;48.174;11.562;2023-03-14T15:46:16;12.40;91.10
27803;DHT22;15182;48.174;11.562;2023-03-14T15:48:50;12.30;91.00
27803;DHT22;15182;48.174;11.562;2023-03-14T15:51:21;12.20;91.20
27803;DHT22;15182;48.174;11.562;2023-03-14T15:53:53;12.20;91.10
27803;DHT22;15182;48.174;11.562;2023-03-14T15:56:25;12.10;91.00
27803;DHT22;15182;48.174;11.562;2023-03-14T15:59:00;12.10;90.80
27803;DHT22;15182;48.174;11.562;2023-03-14T16:01:31;12.10;90.70
27803;DHT22;15182;48.174;11.562;2023-03-14T16:04:04;12.10;90.60
27803;DHT22;15182;48.174;11.562;2023-03-14T16:06:36;12.10;90.50
27803;DHT22;15182;48.174;11.562;2023-03-14T16:09:08;12.00;90.60
27803;DHT22;15182;48.174;11.562;2023-03-14T16:11:40;12.00;90.70
27803;DHT22;15182;48.174;11.562;2023-03-14T16:14:14;12.00;90.70
27803;DHT22;15182;48.174;11.562;2023-03-14T16:16:45;12.00;90.70
27803;DHT22;15182;48.174;11.562;2023-03-14T16:19:18;12.00;90.70